Time;durP1;ratioP1;P1;durP2;ratioP2;P2;SDS_P1;SDS_P2;PMS_P1;PMS_P2;Temp;Humidity;BMP_temperature;BMP_pressure;BME280_temperature;BME280_humidity;BME280_pressure;Samples;Min_cycle;Max_cycle;Signal;HPM_P1;HPM_P2
2022/07/16 00:01:23;;;;;;;14.10;4.60;;;;;;;17.59;58.04;101675.13;5072632;28;20085;-57
2022/07/16 00:03:55;;;;;;;18.50;4.53;;;;;;;17.61;58.40;101673.13;5072882;28;20437;-57
2022/07/16 00:06:23;;;;;;;17.63;4.43;;;;;;;17.65;58.64;101674.44;5073222;28;20048;-57
2022/07/16 00:08:51;;;;;;;14.45;4.05;;;;;;;17.59;58.87;101673.28;5073281;28;20052;-57
2022/07/16 00:11:18;;;;;;;14.20;3.97;;;;;;;17.55;59.51;101665.75;5072965;28;20051;-57
2022/07/16 00:13:45;;;;;;;10.45;4.07;;;;;;;17.54;59.65;101662.25;5073350;28;20102;-57
2022/07/16 00:16:13;;;;;;;17.98;4.30;;;;;;;17.55;59.18;101669.28;5073054;28;20482;-57
2022/07/16 00:19:19;;;;;;;12.18;4.30;;;;;;;17.51;58.89;101665.28;5073313;28;20049;-57
2022/07/16 00:21:27;;;;;;;15.10;4.18;;;;;;;17.50;59.26;101663.63;5072748;28;20075;-57
2022/07/16 00:23:54;;;;;;;12.43;4.40;;;;;;;17.43;60.49;101668.88;5073179;28;20068;-57
2022/07/16 00:26:22;;;;;;;12.80;4.78;;;;;;;17.47;59.73;101658.63;5072681;28;20068;-58
2022/07/16 00:28:48;;;;;;;14.48;4.70;;;;;;;17.54;59.14;101664.94;5072897;28;20048;-57
2022/07/16 00:31:15;;;;;;;12.35;3.83;;;;;;;17.43;59.77;101671.53;5071940;28;20051;-56
2022/07/16 00:33:42;;;;;;;12.68;4.38;;;;;;;17.49;60.87;101666.50;5072798;28;20087;-56
2022/07/16 00:36:09;;;;;;;13.50;4.38;;;;;;;17.48;60.61;101664.81;5072874;28;20114;-56
2022/07/16 00:38:35;;;;;;;12.13;4.15;;;;;;;17.48;60.72;101664.81;5072841;28;20053;-56
2022/07/16 00:41:02;;;;;;;10.63;4.10;;;;;;;17.44;60.82;101665.19;5072482;28;20405;-56
2022/07/16 00:43:29;;;;;;;10.73;4.10;;;;;;;17.47;61.15;101658.63;5068321;28;20033;-56
2022/07/16 00:45:56;;;;;;;17.95;5.18;;;;;;;17.49;59.31;101663.81;5052696;28;20060;-56
2022/07/16 00:48:22;;;;;;;10.93;4.45;;;;;;;17.53;59.78;101654.38;5054335;28;20411;-56
2022/07/16 00:50:49;;;;;;;16.55;4.47;;;;;;;17.44;60.59;101650.91;5056054;28;20384;-56
2022/07/16 00:53:16;;;;;;;11.70;4.55;;;;;;;17.41;60.07;101648.59;5038895;28;20556;-56
2022/07/16 00:55:43;;;;;;;12.35;4.53;;;;;;;17.40;60.42;101653.09;5056565;28;20048;-56
2022/07/16 00:58:09;;;;;;;17.20;4.63;;;;;;;17.37;61.04;101664.22;5056345;28;20110;-56
2022/07/16 01:00:36;;;;;;;14.55;4.45;;;;;;;17.36;60.29;101656.34;5055222;28;20422;-56
2022/07/16 01:03:05;;;;;;;11.90;4.22;;;;;;;17.39;60.25;101669.38;5056152;28;20045;-56
2022/07/16 01:05:32;;;;;;;14.35;4.53;;;;;;;17.35;60.21;101668.88;5055984;28;20052;-56
2022/07/16 01:07:59;;;;;;;15.40;4.80;;;;;;;17.31;60.68;101672.13;5056137;28;20118;-56
2022/07/16 01:10:26;;;;;;;15.07;5.03;;;;;;;17.27;60.88;101672.47;5055809;28;20415;-56
2022/07/16 01:12:58;;;;;;;12.90;4.53;;;;;;;17.19;61.05;101675.19;5037923;28;20044;-56
2022/07/16 01:15:25;;;;;;;12.02;4.82;;;;;;;17.17;61.05;101676.38;5037802;28;20495;-56
2022/07/16 01:17:53;;;;;;;11.45;4.38;;;;;;;17.06;61.46;101670.41;5059501;28;20451;-56
2022/07/16 01:20:20;;;;;;;15.93;4.63;;;;;;;17.05;61.62;101668.72;5055866;28;20052;-56
2022/07/16 01:22:47;;;;;;;13.25;4.50;;;;;;;16.96;62.19;101669.75;5054889;28;20069;-56
2022/07/16 01:25:14;;;;;;;13.85;4.80;;;;;;;16.87;63.04;101668.13;5055916;28;20491;-56
2022/07/16 01:27:43;;;;;;;14.05;4.68;;;;;;;16.79;63.43;101663.59;5055727;28;20072;-56
2022/07/16 01:30:10;;;;;;;12.23;4.45;;;;;;;16.74;64.01;101665.13;5055868;28;20494;-57
2022/07/16 01:32:37;;;;;;;11.98;4.72;;;;;;;16.67;64.01;101667.66;5055796;28;20072;-56
2022/07/16 01:35:05;;;;;;;15.65;5.10;;;;;;;16.61;64.27;101657.63;5037351;28;20048;-56
2022/07/16 01:37:33;;;;;;;24.52;4.95;;;;;;;16.58;64.24;101657.97;5055907;28;20068;-56
2022/07/16 01:39:59;;;;;;;14.85;4.93;;;;;;;16.53;63.77;101663.81;5055403;28;20106;-56
2022/07/16 01:42:26;;;;;;;14.05;5.05;;;;;;;16.55;64.30;101666.34;5055378;28;20095;-56
2022/07/16 01:44:53;;;;;;;14.30;4.78;;;;;;;16.54;64.11;101662.84;5071575;28;20505;-56
2022/07/16 01:47:20;;;;;;;15.93;5.63;;;;;;;16.39;63.97;101662.69;5075577;28;20080;-56
2022/07/16 01:49:47;;;;;;;15.70;5.10;;;;;;;16.38;63.66;101658.34;5075282;28;20052;-56
2022/07/16 01:52:17;;;;;;;13.77;4.70;;;;;;;16.40;63.61;101656.31;5075340;28;20497;-56
2022/07/16 01:54:48;;;;;;;11.23;4.80;;;;;;;16.37;64.02;101661.19;5075550;28;20102;-56
2022/07/16 01:57:16;;;;;;;12.80;5.07;;;;;;;16.35;64.43;101664.03;5075673;28;20048;-56
2022/07/16 01:59:43;;;;;;;12.25;4.82;;;;;;;16.42;64.04;101666.88;5074911;28;20443;-57
2022/07/16 02:02:11;;;;;;;11.82;5.05;;;;;;;16.45;63.66;101667.38;5085029;28;20044;-57
2022/07/16 02:04:40;;;;;;;18.85;5.40;;;;;;;16.49;63.60;101665.19;5094837;28;20789;-56
2022/07/16 02:07:07;;;;;;;14.32;4.75;;;;;;;16.60;62.83;101672.84;5095449;28;20056;-57
2022/07/16 02:09:34;;;;;;;13.38;5.35;;;;;;;16.64;63.21;101658.09;5095424;28;20101;-56
2022/07/16 02:12:02;;;;;;;16.67;5.20;;;;;;;16.65;63.01;101661.63;5095175;28;20047;-55
2022/07/16 02:14:29;;;;;;;11.95;5.00;;;;;;;16.58;62.82;101663.31;5095602;28;20105;-58
2022/07/16 02:16:55;;;;;;;11.82;5.22;;;;;;;16.54;63.16;101662.00;5095116;28;20044;-57
2022/07/16 02:19:22;;;;;;;12.98;5.18;;;;;;;16.58;62.74;101658.78;5095382;28;20093;-58
2022/07/16 02:21:49;;;;;;;12.90;5.13;;;;;;;16.57;62.61;101657.13;5095137;28;20040;-57
2022/07/16 02:24:16;;;;;;;16.83;5.00;;;;;;;16.48;62.89;101655.47;5095028;28;20044;-58
2022/07/16 02:26:43;;;;;;;20.42;5.38;;;;;;;16.44;62.71;101657.63;5084605;28;20048;-57
2022/07/16 02:29:11;;;;;;;15.40;5.30;;;;;;;16.46;63.11;101660.16;5095008;28;20048;-57
2022/07/16 02:31:39;;;;;;;13.05;5.50;;;;;;;16.53;62.96;101669.19;5094234;28;20084;-56
2022/07/16 02:34:06;;;;;;;12.20;5.30;;;;;;;16.37;63.43;101667.38;5094953;28;20136;-58
2022/07/16 02:36:33;;;;;;;16.65;5.30;;;;;;;16.35;63.59;101656.00;5095075;28;20052;-56
2022/07/16 02:39:00;;;;;;;12.75;5.25;;;;;;;16.33;63.72;101662.53;5094850;28;20075;-57
2022/07/16 02:41:27;;;;;;;15.60;5.50;;;;;;;16.28;63.57;101660.34;5094635;28;20051;-57
2022/07/16 02:43:54;;;;;;;17.25;5.22;;;;;;;16.29;63.92;101659.34;5086381;28;20448;-57
2022/07/16 02:46:20;;;;;;;15.30;5.68;;;;;;;16.29;63.54;101654.81;5074378;28;20048;-57
2022/07/16 02:48:47;;;;;;;16.42;5.10;;;;;;;16.36;63.42;101651.50;5074252;28;20584;-56
2022/07/16 02:51:14;;;;;;;16.13;5.28;;;;;;;16.39;63.09;101652.00;5074373;28;20501;-56
2022/07/16 02:53:40;;;;;;;18.27;5.53;;;;;;;16.39;63.19;101654.66;5074191;28;20044;-57
2022/07/16 02:56:07;;;;;;;17.90;5.80;;;;;;;16.40;63.16;101650.97;5074278;28;20123;-57
2022/07/16 02:58:34;;;;;;;15.63;5.30;;;;;;;16.43;62.81;101652.47;5074148;28;20456;-57
2022/07/16 03:01:00;;;;;;;20.27;5.80;;;;;;;16.43;62.90;101656.00;5067548;28;20099;-56
2022/07/16 03:03:27;;;;;;;24.13;5.55;;;;;;;16.38;63.08;101652.97;5053333;28;20045;-57
2022/07/16 03:05:54;;;;;;;20.50;5.32;;;;;;;16.33;63.40;101655.31;5054014;28;20053;-57
2022/07/16 03:08:21;;;;;;;26.23;5.95;;;;;;;16.31;63.71;101658.16;5053897;28;20072;-57
2022/07/16 03:10:47;;;;;;;19.98;5.30;;;;;;;16.35;62.81;101661.34;5053003;28;20411;-57
2022/07/16 03:13:15;;;;;;;16.27;6.20;;;;;;;16.35;63.28;101658.66;5053811;28;20128;-57
2022/07/16 03:15:41;;;;;;;12.73;5.10;;;;;;;16.36;63.37;101662.19;5053967;28;20045;-56
2022/07/16 03:18:08;;;;;;;19.92;5.72;;;;;;;16.39;63.61;101668.06;5056293;28;20094;-57
2022/07/16 03:20:35;;;;;;;18.88;5.55;;;;;;;16.37;63.40;101664.72;5053661;28;20049;-57
2022/07/16 03:23:01;;;;;;;16.38;5.40;;;;;;;16.35;63.21;101668.53;5053237;28;20435;-57
2022/07/16 03:25:29;;;;;;;13.40;5.50;;;;;;;16.41;63.16;101666.03;5054421;28;20502;-57
2022/07/16 03:27:55;;;;;;;19.40;5.50;;;;;;;16.41;62.71;101667.84;5053445;28;20041;-57
2022/07/16 03:30:23;;;;;;;18.73;5.90;;;;;;;16.38;62.67;101665.53;5053073;28;20762;-58
2022/07/16 03:32:50;;;;;;;21.30;5.60;;;;;;;16.39;62.54;101669.88;5053535;28;20041;-58
2022/07/16 03:35:17;;;;;;;16.75;5.50;;;;;;;16.34;63.11;101673.06;5053498;28;20128;-57
2022/07/16 03:40:30;;;;;;;17.30;5.22;;;;;;;16.28;63.29;101671.91;5053180;28;20403;-57
2022/07/16 03:42:57;;;;;;;13.18;6.18;;;;;;;16.26;63.50;101659.69;5053278;28;20077;-57
2022/07/16 03:45:23;;;;;;;21.83;5.93;;;;;;;16.28;63.31;101663.03;5053571;28;20045;-57
2022/07/16 03:47:51;;;;;;;16.38;5.50;;;;;;;16.23;63.25;101660.03;5053304;28;20049;-56
2022/07/16 03:50:18;;;;;;;17.60;5.28;;;;;;;16.33;62.33;101665.22;5053251;28;20044;-57
2022/07/16 03:52:45;;;;;;;16.90;5.35;;;;;;;16.27;62.31;101670.22;5053169;28;20469;-57
2022/07/16 03:55:13;;;;;;;15.27;4.78;;;;;;;16.19;63.01;101664.03;5053192;28;20091;-56
2022/07/16 03:57:40;;;;;;;18.65;5.40;;;;;;;16.21;62.81;101673.59;5053332;28;20182;-56
2022/07/16 04:00:09;;;;;;;20.05;5.60;;;;;;;16.17;62.95;101669.59;5052917;28;20487;-57
2022/07/16 04:02:36;;;;;;;17.80;5.32;;;;;;;16.27;62.74;101680.09;5052744;28;20560;-57
2022/07/16 04:05:03;;;;;;;19.73;5.15;;;;;;;16.14;63.11;101674.44;5052378;28;20406;-57
2022/07/16 04:07:29;;;;;;;19.73;5.18;;;;;;;16.07;63.62;101676.94;5053267;28;20132;-57
2022/07/16 04:09:56;;;;;;;18.25;5.43;;;;;;;16.08;63.60;101678.59;5052973;28;20049;-57
2022/07/16 04:12:24;;;;;;;20.73;5.10;;;;;;;16.08;63.44;101681.28;5053233;28;20548;-57
2022/07/16 04:14:52;;;;;;;18.80;5.57;;;;;;;16.07;63.71;101685.78;5053003;28;20380;-57
2022/07/16 04:17:19;;;;;;;18.65;5.97;;;;;;;16.07;64.02;101690.31;5052687;28;20406;-57
2022/07/16 04:19:46;;;;;;;18.65;5.18;;;;;;;16.10;63.48;101690.00;5053268;28;20511;-57
2022/07/16 04:22:13;;;;;;;16.60;5.13;;;;;;;16.04;63.38;101693.31;5053205;28;20095;-57
2022/07/16 04:24:39;;;;;;;15.88;4.68;;;;;;;15.98;64.42;101683.28;5057056;28;20033;-57
2022/07/16 04:27:06;;;;;;;17.83;5.28;;;;;;;15.92;63.73;101688.31;5057006;28;20048;-56
2022/07/16 04:29:33;;;;;;;14.57;4.95;;;;;;;15.93;64.01;101684.63;5056954;28;20048;-55
2022/07/16 04:32:01;;;;;;;18.17;5.15;;;;;;;15.97;64.13;101695.84;5057067;28;20052;-57
2022/07/16 04:34:27;;;;;;;14.43;5.20;;;;;;;15.97;63.36;101685.16;5056174;28;20041;-56
2022/07/16 04:36:54;;;;;;;11.68;5.03;;;;;;;15.87;64.04;101684.47;5057038;28;20045;-56
2022/07/16 04:39:24;;;;;;;18.60;5.30;;;;;;;15.98;63.05;101676.09;5056632;28;20506;-56
2022/07/16 04:41:51;;;;;;;15.05;4.85;;;;;;;16.09;62.50;101686.47;5056514;28;20545;-56
2022/07/16 04:44:18;;;;;;;16.60;5.28;;;;;;;16.12;62.43;101690.66;5067900;28;20402;-56
2022/07/16 04:46:47;;;;;;;17.33;4.60;;;;;;;16.09;62.74;101688.31;5076649;28;20045;-56
2022/07/16 04:49:14;;;;;;;14.25;4.90;;;;;;;16.09;62.10;101689.13;5076545;28;20048;-56
2022/07/16 04:51:40;;;;;;;13.90;4.50;;;;;;;16.05;62.71;101684.31;5076645;28;20054;-56
2022/07/16 04:54:07;;;;;;;14.43;4.88;;;;;;;16.15;62.02;101682.28;5076249;28;20055;-56
2022/07/16 04:56:33;;;;;;;16.67;4.50;;;;;;;16.18;62.06;101697.19;5076626;28;20044;-56
2022/07/16 04:59:00;;;;;;;34.10;13.63;;;;;;;16.18;62.24;101691.81;5076478;28;20044;-56
2022/07/16 05:01:27;;;;;;;13.40;4.53;;;;;;;16.27;61.69;101693.50;5075992;28;20110;-56
2022/07/16 05:03:53;;;;;;;13.60;4.88;;;;;;;16.24;61.48;101697.31;5075770;28;20044;-58
2022/07/16 05:06:20;;;;;;;16.70;4.85;;;;;;;16.28;61.78;101689.78;5076134;28;20041;-57
2022/07/16 05:08:47;;;;;;;18.85;4.78;;;;;;;16.30;62.29;101695.84;5076240;28;20063;-56
2022/07/16 05:11:13;;;;;;;13.05;5.20;;;;;;;16.29;62.08;101695.00;5076000;28;20048;-56
2022/07/16 05:13:40;;;;;;;12.40;4.85;;;;;;;16.29;62.32;101699.50;5076102;28;20113;-56
2022/07/16 05:16:07;;;;;;;14.85;4.80;;;;;;;16.40;61.92;101690.31;5076212;28;20048;-59
2022/07/16 05:18:33;;;;;;;18.38;5.18;;;;;;;16.40;61.57;101690.31;5051764;28;20502;-58
2022/07/16 05:21:00;;;;;;;17.33;4.78;;;;;;;16.44;61.46;101688.94;5076081;28;20146;-57
2022/07/16 05:23:27;;;;;;;16.13;4.88;;;;;;;16.45;61.10;101704.84;5075313;28;20544;-57
2022/07/16 05:25:53;;;;;;;15.20;4.75;;;;;;;16.48;62.16;101695.63;5076000;28;20052;-57
2022/07/16 05:28:20;;;;;;;23.88;5.03;;;;;;;16.44;62.11;101695.13;5075498;28;20398;-56
2022/07/16 05:30:47;;;;;;;17.52;4.82;;;;;;;16.47;61.78;101702.00;5075145;28;20038;-57
2022/07/16 05:33:16;;;;;;;16.35;5.50;;;;;;;16.60;61.33;101701.47;5075437;28;20036;-57
2022/07/16 05:35:42;;;;;;;20.42;5.15;;;;;;;16.54;61.45;101694.16;5075810;28;20139;-57
2022/07/16 05:38:10;;;;;;;16.08;4.80;;;;;;;16.62;60.90;101705.66;5058241;28;20059;-56
2022/07/16 05:40:37;;;;;;;10.35;4.82;;;;;;;16.66;61.09;101704.34;5075505;28;20067;-56
2022/07/16 05:43:04;;;;;;;14.35;5.15;;;;;;;16.64;60.79;101709.00;5074703;28;20045;-56
2022/07/16 05:45:31;;;;;;;14.90;5.07;;;;;;;16.69;60.81;101714.69;5055717;28;20049;-58
2022/07/16 05:47:58;;;;;;;18.10;5.18;;;;;;;16.74;60.22;101718.72;5055589;28;20095;-58
2022/07/16 05:50:25;;;;;;;12.38;5.00;;;;;;;16.75;60.67;101721.19;5055279;28;20403;-56
2022/07/16 05:52:51;;;;;;;12.77;5.22;;;;;;;16.85;60.06;101719.19;5055218;28;20095;-55
2022/07/16 05:55:18;;;;;;;15.68;5.07;;;;;;;16.78;59.91;101728.91;5055319;28;20048;-56
2022/07/16 05:57:45;;;;;;;17.58;4.80;;;;;;;16.78;60.15;101733.44;5055437;28;20045;-56
2022/07/16 06:00:12;;;;;;;12.32;4.57;;;;;;;16.80;59.79;101726.88;5055365;28;20521;-56
2022/07/16 06:02:42;;;;;;;14.88;4.93;;;;;;;16.83;59.35;101728.44;5055027;28;20052;-57
2022/07/16 06:05:10;;;;;;;14.70;5.20;;;;;;;16.89;59.08;101730.41;5054221;28;20037;-57
2022/07/16 06:07:37;;;;;;;11.95;4.60;;;;;;;16.93;59.19;101730.91;5055211;28;20049;-58
2022/07/16 06:10:05;;;;;;;15.52;4.60;;;;;;;16.88;59.92;101740.31;5054769;28;20446;-58
2022/07/16 06:12:32;;;;;;;17.10;5.80;;;;;;;16.97;59.71;101732.22;5055065;28;20103;-56
2022/07/16 06:14:58;;;;;;;16.23;5.13;;;;;;;17.06;59.53;101731.19;5055141;28;20499;-58
2022/07/16 06:17:25;;;;;;;18.55;5.93;;;;;;;17.19;59.49;101742.22;5054859;28;20487;-57
2022/07/16 06:19:52;;;;;;;15.93;5.53;;;;;;;17.14;59.92;101739.22;5020758;28;20052;-56
2022/07/16 06:22:19;;;;;;;22.60;5.75;;;;;;;17.23;60.26;101740.03;5054962;28;20110;-56
2022/07/16 06:24:46;;;;;;;15.90;5.60;;;;;;;17.44;59.50;101739.41;5054906;28;20127;-56
2022/07/16 06:27:13;;;;;;;14.30;5.57;;;;;;;17.50;59.98;101751.28;5054705;28;20041;-56
2022/07/16 06:29:39;;;;;;;14.15;5.53;;;;;;;17.48;60.10;101748.78;5016903;28;20057;-56
2022/07/16 06:32:06;;;;;;;15.30;5.40;;;;;;;17.55;60.87;101747.06;5036188;28;20041;-57
2022/07/16 06:34:34;;;;;;;21.48;6.80;;;;;;;17.55;60.90;101747.06;5054630;28;20045;-57
2022/07/16 06:37:01;;;;;;;17.27;7.80;;;;;;;17.51;61.53;101750.28;5054208;28;20044;-56
2022/07/16 06:39:28;;;;;;;20.88;7.18;;;;;;;17.55;61.14;101755.13;5055098;28;20056;-56
2022/07/16 06:41:55;;;;;;;20.08;7.35;;;;;;;17.64;61.29;101759.47;5054364;28;20421;-56
2022/07/16 06:44:22;;;;;;;20.05;7.13;;;;;;;17.65;61.29;101750.38;5065993;28;20032;-56
2022/07/16 06:46:49;;;;;;;25.58;7.03;;;;;;;17.70;61.45;101757.06;5073451;28;20048;-57
2022/07/16 06:49:15;;;;;;;18.90;8.15;;;;;;;17.73;61.93;101749.50;5074235;28;20067;-56
2022/07/16 06:51:42;;;;;;;14.90;7.93;;;;;;;17.87;62.49;101757.84;5074453;28;20383;-56
2022/07/16 06:54:09;;;;;;;23.42;8.18;;;;;;;17.96;62.24;101759.47;5074231;28;20366;-56
2022/07/16 06:56:35;;;;;;;18.45;8.00;;;;;;;17.97;62.26;101769.16;5074161;28;20044;-57
2022/07/16 06:59:02;;;;;;;20.35;8.38;;;;;;;17.86;62.33;101767.72;5056354;28;20041;-57
2022/07/16 07:01:29;;;;;;;19.92;8.52;;;;;;;17.94;62.57;101769.53;5073480;28;20057;-56
2022/07/16 07:03:56;;;;;;;21.88;8.50;;;;;;;17.87;62.66;101774.78;5073722;28;20134;-57
2022/07/16 07:06:22;;;;;;;18.77;8.30;;;;;;;17.95;63.59;101773.88;5074012;28;20045;-56
2022/07/16 07:08:49;;;;;;;17.58;8.48;;;;;;;17.95;63.55;101774.72;5073590;28;20048;-57
2022/07/16 07:11:19;;;;;;;22.38;8.63;;;;;;;17.99;63.31;101777.88;5070301;28;20048;-56
2022/07/16 07:13:46;;;;;;;22.40;8.35;;;;;;;17.96;63.59;101783.63;5073837;28;20048;-57
2022/07/16 07:16:13;;;;;;;21.70;9.40;;;;;;;18.03;63.68;101781.91;5073011;28;20445;-57
2022/07/16 07:18:39;;;;;;;20.67;8.63;;;;;;;18.14;63.90;101777.97;5071319;28;20494;-57
2022/07/16 07:21:06;;;;;;;21.95;8.80;;;;;;;18.11;63.95;101781.81;5053788;28;20072;-58
2022/07/16 07:23:33;;;;;;;24.38;10.40;;;;;;;18.10;64.06;101779.31;5053292;28;20103;-58
2022/07/16 07:25:59;;;;;;;22.65;10.15;;;;;;;18.21;64.61;101784.28;5053271;28;20083;-58
2022/07/16 07:28:28;;;;;;;18.35;9.25;;;;;;;18.22;63.47;101781.41;5053626;28;20048;-57
2022/07/16 07:30:56;;;;;;;15.85;8.70;;;;;;;18.42;63.55;101786.28;5053358;28;20102;-58
2022/07/16 07:33:24;;;;;;;19.05;8.85;;;;;;;18.50;63.57;101790.75;5038586;28;20053;-57
2022/07/16 07:35:53;;;;;;;15.95;8.73;;;;;;;18.64;63.62;101789.97;5053293;28;20069;-57
2022/07/16 07:38:19;;;;;;;21.55;11.45;;;;;;;18.60;62.78;101783.28;5053479;28;20102;-57
2022/07/16 07:40:46;;;;;;;24.38;10.98;;;;;;;18.68;63.12;101791.28;5053381;28;20049;-57
2022/07/16 07:43:14;;;;;;;19.83;10.15;;;;;;;18.77;62.52;101786.66;5055662;28;20349;-57
2022/07/16 07:45:41;;;;;;;28.30;9.23;;;;;;;19.01;62.54;101792.84;5072943;28;20036;-58
2022/07/16 07:48:08;;;;;;;14.88;9.48;;;;;;;19.07;61.01;101798.31;5073286;28;20068;-58
2022/07/16 07:50:35;;;;;;;18.70;9.32;;;;;;;19.10;60.36;101799.78;5073174;28;20375;-57
2022/07/16 07:53:01;;;;;;;15.57;8.52;;;;;;;19.18;60.78;101802.41;5072864;28;20067;-57
2022/07/16 07:55:28;;;;;;;16.48;8.00;;;;;;;19.09;60.51;101807.03;5073255;28;20076;-57
2022/07/16 07:57:55;;;;;;;15.70;7.20;;;;;;;19.18;60.50;101805.09;5073342;28;20053;-58
2022/07/16 08:00:22;;;;;;;19.25;8.00;;;;;;;19.17;59.04;101806.97;5038758;28;20460;-56
2022/07/16 08:02:49;;;;;;;19.52;8.00;;;;;;;19.18;58.89;101811.28;5038609;28;20044;-57
2022/07/16 08:05:17;;;;;;;16.65;7.40;;;;;;;19.23;58.56;101808.06;5054426;28;20488;-57
2022/07/16 08:07:44;;;;;;;15.68;5.95;;;;;;;19.12;57.07;101811.22;5038848;28;20045;-58
2022/07/16 08:10:11;;;;;;;12.10;5.10;;;;;;;19.05;56.37;101816.50;5055558;28;20474;-58
2022/07/16 08:12:39;;;;;;;11.90;5.80;;;;;;;19.06;56.16;101812.75;5038788;28;20041;-58
2022/07/16 08:15:08;;;;;;;14.35;5.28;;;;;;;19.08;56.18;101810.75;5073353;28;20048;-58
2022/07/16 08:17:38;;;;;;;14.98;4.70;;;;;;;19.27;54.28;101808.53;5073316;28;20049;-58
2022/07/16 08:20:06;;;;;;;10.27;3.30;;;;;;;19.37;53.07;101817.13;5055197;28;20117;-58
2022/07/16 08:22:33;;;;;;;11.00;3.72;;;;;;;19.46;53.61;101818.69;5006373;28;20071;-58
2022/07/16 08:27:47;;;;;;;12.15;3.40;;;;;;;19.66;51.92;101818.13;5054832;28;20068;-58
2022/07/16 08:30:14;;;;;;;10.57;3.20;;;;;;;19.72;51.34;101818.22;5034373;28;20036;-57
2022/07/16 08:32:41;;;;;;;15.65;3.10;;;;;;;19.83;50.20;101816.94;5072841;28;20051;-57
2022/07/16 08:35:08;;;;;;;10.52;2.75;;;;;;;19.97;48.25;101817.91;5073146;28;20173;-57
2022/07/16 08:37:42;;;;;;;7.40;2.28;;;;;;;19.90;45.18;101819.69;5073226;28;20048;-57
2022/07/16 08:40:13;;;;;;;6.43;1.90;;;;;;;19.86;45.11;101830.00;5055402;28;20048;-57
2022/07/16 08:42:40;;;;;;;10.82;2.42;;;;;;;19.98;46.78;101821.44;5073480;28;20525;-57
2022/07/16 08:45:09;;;;;;;5.53;1.92;;;;;;;20.13;46.41;101823.06;5055296;28;20068;-57
2022/07/16 08:47:37;;;;;;;8.35;2.00;;;;;;;20.27;46.38;101829.41;5052379;28;20049;-57
2022/07/16 08:50:08;;;;;;;7.97;2.00;;;;;;;20.49;45.45;101821.34;5052519;28;20095;-57
2022/07/16 08:52:39;;;;;;;7.65;2.17;;;;;;;20.32;45.60;101827.00;5034877;28;20150;-57
2022/07/16 08:55:07;;;;;;;7.95;2.15;;;;;;;20.37;45.35;101841.75;5052813;28;20037;-57
2022/07/16 08:57:37;;;;;;;10.52;2.30;;;;;;;20.53;45.38;101842.31;5053045;28;20041;-57
2022/07/16 09:00:08;;;;;;;11.30;3.10;;;;;;;20.51;45.86;101847.06;5018768;28;20095;-58
2022/07/16 09:02:35;;;;;;;13.60;2.17;;;;;;;20.62;46.21;101843.03;5052245;28;20231;-57
2022/07/16 09:05:02;;;;;;;8.88;2.15;;;;;;;20.66;46.16;101848.88;5051944;28;20095;-57
2022/07/16 09:07:29;;;;;;;7.70;1.98;;;;;;;20.48;46.00;101860.94;5052414;28;20143;-58
2022/07/16 09:09:56;;;;;;;8.30;2.47;;;;;;;20.52;44.68;101864.09;5036970;28;20449;-57
2022/07/16 09:12:41;;;;;;;9.07;2.50;;;;;;;20.42;45.76;101861.69;5038717;28;20041;-57
2022/07/16 09:15:43;;;;;;;8.77;2.75;;;;;;;20.39;45.73;101862.09;5022395;28;20087;-57
2022/07/16 09:18:11;;;;;;;;;;;;;;;20.60;44.68;101872.03;5056366;28;20060;-57
2022/07/16 09:20:43;;;;;;;7.15;2.40;;;;;;;20.69;44.63;101870.06;5059906;28;19921;-57
2022/07/16 09:23:31;;;;;;;7.93;2.25;;;;;;;20.81;45.24;101878.44;5056008;28;20067;-57
2022/07/16 09:26:07;;;;;;;9.10;2.45;;;;;;;20.86;44.55;101870.63;5055004;28;20041;-57
2022/07/16 09:28:43;;;;;;;8.55;2.30;;;;;;;21.03;45.05;101873.88;5038308;28;20045;-58
2022/07/16 09:31:11;;;;;;;6.85;2.00;;;;;;;20.92;45.35;101877.94;5055369;28;20055;-57
2022/07/16 09:33:38;;;;;;;9.60;2.28;;;;;;;20.84;45.35;101883.47;5043232;28;20049;-57
2022/07/16 09:36:08;;;;;;;9.73;2.35;;;;;;;20.94;45.75;101889.38;5021503;28;20037;-57
2022/07/16 09:38:46;;;;;;;8.55;2.40;;;;;;;21.03;45.24;101890.06;5021808;28;20048;-57
2022/07/16 09:41:14;;;;;;;9.93;2.25;;;;;;;21.02;44.76;101883.00;5021723;28;20041;-57
2022/07/16 09:43:43;;;;;;;5.97;2.15;;;;;;;21.15;45.42;101883.06;5023719;28;20399;-57
2022/07/16 09:46:15;;;;;;;9.18;2.10;;;;;;;;;;5055367;28;20045;-57
2022/07/16 09:48:42;;;;;;;11.38;2.30;;;;;;;21.23;44.50;101885.63;5055523;28;20051;-58
2022/07/16 09:51:29;;;;;;;11.90;2.20;;;;;;;21.40;44.55;101883.44;5021081;28;20049;-57
2022/07/16 09:53:56;;;;;;;11.18;2.40;;;;;;;21.38;44.05;101887.41;4989498;28;20052;-57
2022/07/16 09:56:26;;;;;;;7.28;2.03;;;;;;;21.19;45.30;101889.78;5055425;28;20391;-57
2022/07/16 09:58:57;;;;;;;8.27;2.13;;;;;;;21.19;44.66;101888.91;5055329;28;20045;-58
2022/07/16 10:01:26;;;;;;;6.53;2.10;;;;;;;21.15;45.00;101898.44;5054127;28;20429;-56
2022/07/16 10:03:52;;;;;;;10.55;2.38;;;;;;;21.43;44.86;101888.47;5072991;28;20036;-57
2022/07/16 10:06:19;;;;;;;7.97;2.10;;;;;;;21.80;43.70;101886.41;5074587;28;20043;-57
2022/07/16 10:08:46;;;;;;;6.35;2.10;;;;;;;21.96;42.42;101895.19;5074793;28;20052;-57
2022/07/16 10:11:13;;;;;;;9.60;2.03;;;;;;;22.34;42.55;101895.56;5075007;28;20044;-58
2022/07/16 10:13:44;;;;;;;9.30;2.20;;;;;;;22.00;41.65;101894.59;5057254;28;20049;-58
2022/07/16 10:16:11;;;;;;;6.40;1.92;;;;;;;21.97;42.28;101902.25;5075116;28;20124;-57
2022/07/16 10:18:42;;;;;;;8.90;2.10;;;;;;;22.42;42.44;101908.88;5074687;28;20090;-57
2022/07/16 10:24:11;;;;;;;6.15;2.10;;;;;;;22.77;41.20;101895.19;5111422;27;20391;-55
2022/07/16 10:26:38;;;;;;;6.68;2.00;;;;;;;22.65;41.45;101902.28;5111238;28;20050;-55
2022/07/16 10:29:06;;;;;;;9.25;2.20;;;;;;;22.30;41.99;101909.66;5110816;28;20051;-55
2022/07/16 10:34:39;;;;;;;11.15;2.30;;;;;;;21.94;43.57;101911.59;5104704;28;20044;-56
2022/07/16 10:37:10;;;;;;;7.80;2.20;;;;;;;21.84;43.79;101911.97;5104928;28;20096;-55
2022/07/16 10:39:57;;;;;;;;;;;;;;;21.99;43.87;101909.16;5092429;28;20055;-56
2022/07/16 10:42:24;;;;;;;6.40;2.20;;;;;;;22.29;42.87;101916.97;5106333;28;19926;-55
2022/07/16 10:44:51;;;;;;;12.45;2.33;;;;;;;22.71;41.94;101903.31;5097255;28;20044;-61
2022/07/16 10:47:19;;;;;;;10.95;4.10;;;;;;;22.76;40.43;101912.47;5103842;28;20459;-61
2022/07/16 10:49:46;;;;;;;8.82;2.00;;;;;;;22.93;40.57;101909.34;5109797;28;20489;-59
2022/07/16 10:52:18;;;;;;;6.15;2.22;;;;;;;23.09;39.20;101913.56;5110183;28;20485;-60
2022/07/16 10:54:55;;;;;;;8.57;2.00;;;;;;;22.79;40.36;101922.88;5094454;28;20132;-61
2022/07/16 10:57:34;;;;;;;7.70;2.38;;;;;;;22.66;40.17;101930.13;5090382;28;20044;-60
2022/07/16 11:00:01;;;;;;;11.70;2.25;;;;;;;22.43;40.98;101932.19;5090139;28;20516;-61
2022/07/16 11:02:28;;;;;;;13.68;2.33;;;;;;;22.72;41.59;101935.56;5089917;28;20106;-61
2022/07/16 11:04:55;;;;;;;6.18;2.00;;;;;;;22.80;41.06;101927.22;5089350;28;20512;-61
2022/07/16 11:07:22;;;;;;;9.95;2.67;;;;;;;23.04;41.04;101926.84;5090205;28;20048;-62
2022/07/16 11:09:53;;;;;;;9.57;2.40;;;;;;;23.13;40.71;101934.56;5090144;28;20048;-61
2022/07/16 11:12:26;;;;;;;11.83;2.53;;;;;;;23.52;39.80;101930.16;5090211;28;20040;-62
2022/07/16 11:14:55;;;;;;;7.05;2.13;;;;;;;23.44;39.41;101935.78;5090132;28;20048;-61
2022/07/16 11:17:25;;;;;;;6.43;2.03;;;;;;;23.50;38.28;101929.53;5090387;28;20085;-62
2022/07/16 11:19:55;;;;;;;8.32;2.05;;;;;;;23.67;37.90;101931.78;5088188;28;20410;-61
2022/07/16 11:22:24;;;;;;;8.73;1.95;;;;;;;23.68;38.20;101938.84;5112809;28;20048;-61
2022/07/16 11:24:53;;;;;;;13.30;2.17;;;;;;;23.09;39.25;101937.91;5110177;28;20562;-61
2022/07/16 11:27:29;;;;;;;8.20;1.90;;;;;;;22.80;39.69;101948.06;5109661;28;20043;-61
2022/07/16 11:29:58;;;;;;;8.15;2.25;;;;;;;22.52;39.38;101945.50;5109626;28;20040;-60
2022/07/16 11:32:25;;;;;;;7.63;2.00;;;;;;;22.67;39.96;101934.50;5109398;28;20075;-61
2022/07/16 11:34:53;;;;;;;7.65;2.10;;;;;;;22.78;39.84;101937.44;5096778;28;20520;-60